Time;durP1;ratioP1;P1;durP2;ratioP2;P2;SDS_P1;SDS_P2;PMS_P1;PMS_P2;Temp;Humidity;BMP_temperature;BMP_pressure;BME280_temperature;BME280_humidity;BME280_pressure;Samples;Min_cycle;Max_cycle;Signal;HPM_P1;HPM_P2
2022/09/29 00:00:58;;;;;;;1.53;1.20;;;10.10;98.20;;;;;;4979536;28;21088;-77
2022/09/29 00:03:25;;;;;;;1.50;1.20;;;10.10;98.20;;;;;;4988620;28;20495;-76
2022/09/29 00:05:54;;;;;;;1.53;1.20;;;10.10;98.20;;;;;;4978661;28;20480;-77
2022/09/29 00:08:25;;;;;;;1.57;1.20;;;10.00;98.20;;;;;;5002715;28;20522;-76
2022/09/29 00:10:52;;;;;;;1.60;1.30;;;10.00;98.20;;;;;;4980185;28;20485;-77
2022/09/29 00:13:20;;;;;;;1.50;1.10;;;10.00;98.20;;;;;;4985928;28;20497;-77
2022/09/29 00:15:56;;;;;;;1.57;1.20;;;9.90;98.20;;;;;;4989518;28;20469;-76
2022/09/29 00:18:22;;;;;;;1.50;1.17;;;9.90;98.20;;;;;;4960567;28;20469;-76
2022/09/29 00:20:57;;;;;;;1.53;1.20;;;9.90;98.20;;;;;;4980668;28;20516;-77
2022/09/29 00:23:26;;;;;;;1.50;1.10;;;9.80;98.20;;;;;;4987027;28;20523;-76
2022/09/29 00:26:01;;;;;;;1.50;1.10;;;9.80;98.20;;;;;;4978847;28;20543;-76
2022/09/29 00:28:28;;;;;;;1.50;1.20;;;9.80;98.20;;;;;;4987194;28;20464;-76
2022/09/29 00:30:55;;;;;;;1.53;1.17;;;9.70;98.20;;;;;;4976586;28;20912;-76
2022/09/29 00:33:22;;;;;;;1.60;1.20;;;9.70;98.20;;;;;;4987190;28;20469;-76
2022/09/29 00:35:57;;;;;;;1.57;1.13;;;9.70;98.20;;;;;;4979017;28;20465;-76
2022/09/29 00:38:27;;;;;;;1.57;1.20;;;9.60;98.20;;;;;;4999094;28;20471;-76
2022/09/29 00:40:53;;;;;;;1.50;1.20;;;9.60;98.20;;;;;;4974566;28;20489;-76
2022/09/29 00:43:22;;;;;;;1.50;1.13;;;9.50;98.20;;;;;;4966104;28;20855;-76
2022/09/29 00:45:51;;;;;;;1.53;1.20;;;9.50;98.20;;;;;;4973358;28;20496;-76
2022/09/29 00:48:23;;;;;;;1.50;1.20;;;9.40;98.20;;;;;;4981946;28;20468;-76
2022/09/29 00:50:53;;;;;;;1.53;1.20;;;9.40;98.20;;;;;;4981576;28;20547;-76
2022/09/29 00:53:22;;;;;;;1.53;1.20;;;9.40;98.20;;;;;;4986185;28;20476;-76
2022/09/29 00:55:53;;;;;;;1.60;1.30;;;9.40;98.20;;;;;;4982780;28;20468;-76
2022/09/29 00:58:31;;;;;;;1.60;1.30;;;9.40;98.20;;;;;;4986886;28;20477;-76
2022/09/29 01:00:58;;;;;;;1.57;1.20;;;9.30;98.20;;;;;;4981290;28;20580;-76
2022/09/29 01:03:30;;;;;;;1.60;1.30;;;9.30;98.20;;;;;;4990476;28;20924;-76
2022/09/29 01:06:01;;;;;;;1.53;1.23;;;9.30;98.20;;;;;;4970314;28;21169;-75
2022/09/29 01:08:36;;;;;;;1.50;1.20;;;9.20;98.20;;;;;;4986015;28;20460;-75
2022/09/29 01:11:05;;;;;;;1.53;1.20;;;9.20;98.20;;;;;;4986471;28;20484;-76
2022/09/29 01:13:34;;;;;;;1.60;1.30;;;9.10;98.20;;;;;;4974783;28;20458;-76
2022/09/29 01:16:01;;;;;;;1.57;1.20;;;9.10;98.20;;;;;;4973672;28;20467;-75
2022/09/29 01:18:29;;;;;;;1.53;1.20;;;9.00;98.20;;;;;;5005644;28;20464;-76
2022/09/29 01:21:04;;;;;;;1.60;1.30;;;9.00;98.20;;;;;;4981938;28;20495;-76
2022/09/29 01:24:06;;;;;;;1.53;1.20;;;8.90;98.20;;;;;;4984927;28;20492;-76
2022/09/29 01:27:01;;;;;;;1.60;1.30;;;8.90;98.20;;;;;;4980421;28;20491;-75
2022/09/29 01:30:04;;;;;;;1.60;1.20;;;8.80;98.20;;;;;;4987276;28;20497;-76
2022/09/29 01:32:43;;;;;;;1.50;1.20;;;8.80;98.20;;;;;;4977754;28;20485;-76
2022/09/29 01:35:16;;;;;;;1.60;1.30;;;8.80;98.20;;;;;;4986319;28;20472;-76
2022/09/29 01:37:55;;;;;;;1.53;1.20;;;8.70;98.20;;;;;;4990527;28;21005;-75
2022/09/29 01:40:30;;;;;;;1.57;1.30;;;8.60;98.20;;;;;;4997508;28;20576;-75
2022/09/29 01:43:04;;;;;;;1.60;1.30;;;8.60;98.20;;;;;;4979807;28;20477;-76
2022/09/29 01:45:34;;;;;;;1.57;1.30;;;8.60;98.20;;;;;;4990786;28;20487;-77
2022/09/29 01:48:07;;;;;;;1.57;1.20;;;8.60;98.20;;;;;;4979722;28;20481;-76
2022/09/29 01:50:37;;;;;;;1.60;1.30;;;8.50;98.20;;;;;;4991896;28;20504;-75
2022/09/29 01:53:08;;;;;;;1.53;1.20;;;8.50;98.20;;;;;;4976118;28;20485;-76
2022/09/29 01:55:41;;;;;;;1.60;1.30;;;8.50;98.20;;;;;;4983948;28;20461;-75
2022/09/29 01:58:13;;;;;;;1.57;1.30;;;8.40;98.20;;;;;;4976354;28;20489;-75
2022/09/29 02:00:45;;;;;;;1.57;1.30;;;8.40;98.20;;;;;;4990673;28;20577;-75
2022/09/29 02:03:19;;;;;;;1.57;1.20;;;8.40;98.20;;;;;;4961258;28;20489;-75
2022/09/29 02:05:50;;;;;;;1.50;1.30;;;8.40;98.20;;;;;;4990040;28;20500;-75
2022/09/29 02:08:22;;;;;;;1.57;1.30;;;8.40;98.20;;;;;;4975292;28;20488;-75
2022/09/29 02:10:54;;;;;;;1.50;1.20;;;8.30;98.20;;;;;;4988357;28;20489;-76
2022/09/29 02:13:23;;;;;;;1.57;1.30;;;8.30;98.20;;;;;;4988893;28;20973;-76
2022/09/29 02:15:54;;;;;;;1.53;1.20;;;8.30;98.20;;;;;;4980735;28;20461;-75
2022/09/29 02:18:26;;;;;;;1.60;1.30;;;8.30;98.20;;;;;;4983819;28;20465;-75
2022/09/29 02:20:53;;;;;;;1.60;1.30;;;8.30;98.20;;;;;;4974487;28;20524;-76
2022/09/29 02:23:20;;;;;;;1.57;1.20;;;8.20;98.20;;;;;;4983458;28;20476;-75
2022/09/29 02:25:49;;;;;;;1.60;1.30;;;8.20;98.20;;;;;;4991540;28;20837;-75
2022/09/29 02:28:17;;;;;;;1.60;1.20;;;8.20;98.20;;;;;;4959070;28;20488;-75
2022/09/29 02:30:45;;;;;;;1.60;1.30;;;8.20;98.20;;;;;;4992038;28;20589;-75
2022/09/29 02:33:20;;;;;;;1.57;1.30;;;8.20;98.20;;;;;;4980062;28;20576;-75
2022/09/29 02:35:59;;;;;;;1.60;1.40;;;8.20;98.20;;;;;;4989246;28;20527;-75
2022/09/29 02:38:35;;;;;;;1.50;1.23;;;8.10;98.20;;;;;;4990481;28;20525;-75
2022/09/29 02:41:07;;;;;;;1.57;1.30;;;8.10;98.20;;;;;;4978553;28;20485;-75
2022/09/29 02:44:07;;;;;;;1.57;1.30;;;8.10;98.20;;;;;;4989139;28;20472;-75
2022/09/29 02:46:44;;;;;;;1.60;1.40;;;8.00;98.20;;;;;;4978409;28;20484;-76
2022/09/29 02:49:35;;;;;;;1.60;1.27;;;8.00;98.20;;;;;;4987062;28;20519;-75
2022/09/29 02:52:13;;;;;;;1.60;1.40;;;8.00;98.20;;;;;;4978672;28;20480;-75
2022/09/29 02:54:54;;;;;;;1.53;1.30;;;8.00;98.20;;;;;;4990446;28;20472;-75
2022/09/29 02:57:28;;;;;;;1.60;1.30;;;8.00;98.20;;;;;;4978076;28;20575;-75
2022/09/29 03:00:07;;;;;;;1.50;1.20;;;8.00;98.20;;;;;;4990504;28;20567;-76
2022/09/29 03:02:34;;;;;;;1.53;1.30;;;8.00;98.20;;;;;;4978820;28;20496;-75
2022/09/29 03:05:01;;;;;;;1.60;1.27;;;7.90;98.20;;;;;;4991527;28;21038;-76
2022/09/29 03:07:30;;;;;;;1.60;1.30;;;7.90;98.20;;;;;;4989952;28;21036;-76
2022/09/29 03:09:57;;;;;;;1.60;1.30;;;7.90;98.20;;;;;;4999483;28;20487;-76
2022/09/29 03:12:24;;;;;;;1.60;1.30;;;7.90;98.20;;;;;;4978845;28;20557;-76
2022/09/29 03:14:51;;;;;;;1.60;1.30;;;7.80;98.20;;;;;;4990133;28;20497;-76
2022/09/29 03:17:18;;;;;;;1.63;1.47;;;7.80;98.20;;;;;;4976601;28;20488;-75
2022/09/29 03:19:45;;;;;;;1.60;1.40;;;7.80;98.20;;;;;;4981483;28;20473;-75
2022/09/29 03:22:12;;;;;;;1.60;1.30;;;7.80;98.20;;;;;;4974827;28;20563;-75
2022/09/29 03:24:40;;;;;;;1.60;1.40;;;7.80;98.20;;;;;;4990258;28;20527;-75
2022/09/29 03:27:08;;;;;;;1.57;1.30;;;7.80;98.20;;;;;;4978181;28;20491;-75
2022/09/29 03:29:35;;;;;;;1.57;1.30;;;7.80;98.20;;;;;;4988629;28;20462;-75
2022/09/29 03:32:03;;;;;;;1.53;1.30;;;7.80;98.20;;;;;;4975192;28;20543;-75
2022/09/29 03:34:30;;;;;;;1.60;1.30;;;7.70;98.20;;;;;;4988680;28;20903;-75
2022/09/29 03:36:57;;;;;;;1.53;1.20;;;7.80;98.20;;;;;;4980896;28;20911;-75
2022/09/29 03:39:24;;;;;;;1.60;1.30;;;7.80;98.20;;;;;;4992247;28;20465;-75
2022/09/29 03:41:53;;;;;;;1.60;1.40;;;7.80;98.20;;;;;;4978094;28;20499;-75
2022/09/29 03:44:20;;;;;;;1.60;1.50;;;7.80;98.20;;;;;;4988774;28;20864;-75
2022/09/29 03:46:47;;;;;;;1.57;1.20;;;7.70;98.20;;;;;;4977790;28;20524;-74
2022/09/29 03:49:15;;;;;;;1.60;1.47;;;7.70;98.20;;;;;;4989127;28;20477;-75
2022/09/29 03:51:42;;;;;;;1.60;1.30;;;7.70;98.20;;;;;;4976727;28;20496;-75
2022/09/29 03:54:09;;;;;;;1.53;1.30;;;7.70;98.20;;;;;;4986884;28;20504;-75
2022/09/29 03:56:37;;;;;;;1.57;1.27;;;7.70;98.20;;;;;;4974820;28;20500;-74
2022/09/29 03:59:08;;;;;;;1.57;1.30;;;7.80;98.20;;;;;;4986499;28;20469;-75
2022/09/29 04:01:34;;;;;;;1.60;1.30;;;7.80;98.20;;;;;;4976565;28;20504;-75
2022/09/29 04:04:02;;;;;;;1.53;1.30;;;7.80;98.20;;;;;;4985521;28;20918;-75
2022/09/29 04:06:29;;;;;;;1.60;1.30;;;7.70;98.20;;;;;;4976022;28;20495;-75
2022/09/29 04:08:56;;;;;;;1.50;1.30;;;7.70;98.20;;;;;;4997238;28;20459;-75
2022/09/29 04:11:23;;;;;;;1.57;1.27;;;7.70;98.20;;;;;;4977042;28;20535;-75
2022/09/29 04:13:50;;;;;;;1.60;1.30;;;7.60;98.20;;;;;;4988091;28;20480;-74
2022/09/29 04:16:18;;;;;;;1.60;1.30;;;7.60;98.20;;;;;;4976475;28;20564;-75
2022/09/29 04:18:45;;;;;;;1.60;1.20;;;7.60;98.20;;;;;;4986986;28;20490;-75
2022/09/29 04:21:12;;;;;;;1.60;1.30;;;7.60;98.20;;;;;;4977671;28;20513;-75
2022/09/29 04:23:40;;;;;;;1.60;1.20;;;7.60;98.20;;;;;;4991467;28;20472;-75
2022/09/29 04:26:07;;;;;;;1.60;1.30;;;7.50;98.20;;;;;;4979044;28;20477;-75
2022/09/29 04:28:41;;;;;;;1.60;1.40;;;7.50;98.20;;;;;;4993005;28;20946;-75
2022/09/29 04:31:20;;;;;;;1.60;1.30;;;7.50;98.20;;;;;;4983377;28;20486;-76
2022/09/29 04:33:55;;;;;;;1.60;1.37;;;7.50;98.20;;;;;;4993494;28;20456;-75
2022/09/29 04:36:24;;;;;;;1.53;1.20;;;7.50;98.20;;;;;;4983596;28;20531;-73
2022/09/29 04:38:52;;;;;;;1.60;1.30;;;7.50;98.20;;;;;;4995441;28;20469;-73
2022/09/29 04:41:19;;;;;;;1.60;1.30;;;7.50;98.20;;;;;;4975152;28;20492;-73
2022/09/29 04:43:46;;;;;;;1.60;1.30;;;7.50;98.20;;;;;;4986036;28;20505;-73
2022/09/29 04:46:14;;;;;;;1.53;1.30;;;7.50;98.20;;;;;;4978391;28;20477;-76
2022/09/29 04:48:41;;;;;;;1.60;1.30;;;7.50;98.20;;;;;;4979811;28;20665;-76
2022/09/29 04:51:10;;;;;;;1.57;1.30;;;7.50;98.20;;;;;;4935806;28;1212069;-74
2022/09/29 04:53:37;;;;;;;1.53;1.20;;;7.60;98.20;;;;;;4988764;28;20222;-74
2022/09/29 04:56:08;;;;;;;1.60;1.30;;;7.60;98.20;;;;;;4980602;28;20472;-75
2022/09/29 04:58:35;;;;;;;1.60;1.30;;;7.50;98.20;;;;;;4994887;28;20986;-74
2022/09/29 05:01:11;;;;;;;1.60;1.30;;;7.50;98.20;;;;;;4986380;28;20489;-75
2022/09/29 05:03:38;;;;;;;1.60;1.30;;;7.50;98.20;;;;;;4988844;28;20853;-75
2022/09/29 05:06:06;;;;;;;1.53;1.30;;;7.50;98.20;;;;;;4979716;28;20461;-74
2022/09/29 05:08:35;;;;;;;1.53;1.30;;;7.50;98.20;;;;;;4996733;28;20490;-74
2022/09/29 05:11:05;;;;;;;1.57;1.20;;;7.50;98.20;;;;;;4978370;28;20547;-74
2022/09/29 05:13:32;;;;;;;1.60;1.30;;;7.50;98.20;;;;;;4986273;28;20473;-74
2022/09/29 05:16:00;;;;;;;1.60;1.30;;;7.50;98.20;;;;;;4978730;28;20958;-75
2022/09/29 05:18:27;;;;;;;1.57;1.30;;;7.50;98.20;;;;;;4987826;28;20552;-74
2022/09/29 05:20:54;;;;;;;1.53;1.30;;;7.40;98.20;;;;;;4978497;28;20516;-75
2022/09/29 05:23:22;;;;;;;1.60;1.30;;;7.40;98.20;;;;;;4989694;28;20465;-74
2022/09/29 05:25:50;;;;;;;2.37;2.20;;;7.40;98.20;;;;;;4980201;28;20464;-74
2022/09/29 05:28:17;;;;;;;1.60;1.30;;;7.40;98.20;;;;;;4989315;28;20508;-74
2022/09/29 05:30:44;;;;;;;1.60;1.30;;;7.40;98.20;;;;;;4990728;28;20499;-74
2022/09/29 05:33:12;;;;;;;1.57;1.30;;;7.50;98.20;;;;;;4978265;28;20515;-74
2022/09/29 05:35:39;;;;;;;1.60;1.37;;;7.50;98.20;;;;;;4989533;28;20469;-74
2022/09/29 05:38:06;;;;;;;1.57;1.30;;;7.50;98.20;;;;;;4968807;28;20476;-74
2022/09/29 05:40:33;;;;;;;1.50;1.30;;;7.50;98.20;;;;;;4993610;28;20492;-74
2022/09/29 05:43:02;;;;;;;1.57;1.27;;;7.50;98.20;;;;;;4978356;28;21040;-74
2022/09/29 05:45:29;;;;;;;1.60;1.30;;;7.50;98.20;;;;;;4990302;28;20465;-73
2022/09/29 05:47:56;;;;;;;1.60;1.30;;;7.50;98.20;;;;;;4979410;28;20484;-76
2022/09/29 05:50:23;;;;;;;1.60;1.30;;;7.50;98.20;;;;;;4992392;28;20886;-75
2022/09/29 05:52:51;;;;;;;1.60;1.30;;;7.50;98.20;;;;;;4980031;28;20485;-76
2022/09/29 05:55:19;;;;;;;1.50;1.30;;;7.50;98.20;;;;;;4990220;28;20461;-74
2022/09/29 05:57:49;;;;;;;1.57;1.30;;;7.50;98.20;;;;;;4978682;28;20477;-75
2022/09/29 06:00:18;;;;;;;1.60;1.30;;;7.50;98.20;;;;;;4989828;28;20493;-73
2022/09/29 06:02:45;;;;;;;1.57;1.30;;;7.50;98.20;;;;;;4978112;28;20489;-73
2022/09/29 06:05:12;;;;;;;1.60;1.30;;;7.50;98.20;;;;;;4989624;28;20461;-74
2022/09/29 06:07:39;;;;;;;1.60;1.40;;;7.50;98.20;;;;;;4982171;28;20881;-74
2022/09/29 06:10:07;;;;;;;1.60;1.30;;;7.50;98.20;;;;;;4991479;28;20931;-77
2022/09/29 06:12:36;;;;;;;1.60;1.40;;;7.50;98.20;;;;;;4982269;28;20497;-75
2022/09/29 06:15:04;;;;;;;1.60;1.30;;;7.60;98.20;;;;;;4993612;28;20492;-76
2022/09/29 06:17:33;;;;;;;1.60;1.30;;;7.60;98.20;;;;;;4977446;28;20481;-75
2022/09/29 06:20:01;;;;;;;1.60;1.40;;;7.70;98.20;;;;;;4989589;28;20485;-76
2022/09/29 06:22:28;;;;;;;1.53;1.20;;;7.80;98.20;;;;;;4983201;28;20980;-77
2022/09/29 06:24:56;;;;;;;1.60;1.30;;;7.90;98.20;;;;;;4998738;28;20461;-75
2022/09/29 06:27:24;;;;;;;1.60;1.30;;;8.00;98.20;;;;;;4974210;28;20481;-74
2022/09/29 06:29:51;;;;;;;1.60;1.30;;;8.10;98.20;;;;;;4992191;28;20477;-73
2022/09/29 06:32:19;;;;;;;1.57;1.23;;;8.20;98.20;;;;;;4981541;28;21006;-75
2022/09/29 06:37:38;;;;;;;1.50;1.20;;;8.40;98.20;;;;;;4988351;28;20479;-75
2022/09/29 06:40:07;;;;;;;1.60;1.30;;;8.60;98.20;;;;;;4995373;28;20484;-75
2022/09/29 06:42:35;;;;;;;1.60;1.20;;;8.70;98.20;;;;;;4979613;28;20485;-75
2022/09/29 06:45:03;;;;;;;1.60;1.20;;;8.90;98.20;;;;;;4989787;28;20894;-74
2022/09/29 06:47:30;;;;;;;1.60;1.30;;;9.00;98.20;;;;;;4977389;28;20924;-73
2022/09/29 06:50:01;;;;;;;1.60;1.20;;;9.10;98.20;;;;;;4988642;28;21024;-77
2022/09/29 06:52:28;;;;;;;1.60;1.30;;;9.20;98.20;;;;;;4972299;28;20505;-76
2022/09/29 06:54:55;;;;;;;1.53;1.20;;;9.30;98.20;;;;;;4980901;28;20469;-73
2022/09/29 06:57:23;;;;;;;1.57;1.20;;;9.40;98.20;;;;;;4977798;28;20572;-73
2022/09/29 06:59:51;;;;;;;1.60;1.30;;;9.50;98.20;;;;;;4988937;28;20580;-73
2022/09/29 07:02:18;;;;;;;1.60;1.20;;;9.60;98.20;;;;;;4978172;28;20481;-73
2022/09/29 07:04:47;;;;;;;1.60;1.20;;;9.70;98.20;;;;;;4989497;28;20555;-74
2022/09/29 07:07:16;;;;;;;1.60;1.20;;;9.90;98.20;;;;;;4983604;28;20515;-74
2022/09/29 07:09:44;;;;;;;1.60;1.20;;;10.00;98.20;;;;;;4997422;28;20819;-74
2022/09/29 07:12:12;;;;;;;1.60;1.20;;;10.10;98.20;;;;;;4978338;28;20476;-74
2022/09/29 07:14:39;;;;;;;1.53;1.20;;;10.20;98.20;;;;;;4988992;28;20473;-74
2022/09/29 07:17:08;;;;;;;1.60;1.20;;;10.40;98.20;;;;;;4975498;28;20485;-75
2022/09/29 07:19:35;;;;;;;1.60;1.20;;;10.50;98.20;;;;;;4988731;28;20461;-75
2022/09/29 07:22:03;;;;;;;1.57;1.10;;;10.60;98.20;;;;;;4978267;28;20516;-75
2022/09/29 07:24:32;;;;;;;1.57;1.17;;;10.70;98.20;;;;;;4988193;28;20469;-75
2022/09/29 07:26:59;;;;;;;1.53;1.20;;;10.90;98.20;;;;;;4978277;28;20864;-75
2022/09/29 07:29:29;;;;;;;1.60;1.20;;;11.00;98.20;;;;;;4994738;28;20464;-75
2022/09/29 07:31:57;;;;;;;1.60;1.20;;;11.10;98.20;;;;;;4974907;28;20486;-74
2022/09/29 07:34:24;;;;;;;1.60;1.20;;;11.10;98.20;;;;;;4982268;28;20488;-75
2022/09/29 07:36:51;;;;;;;1.57;1.10;;;11.30;98.20;;;;;;4983118;28;20488;-75
2022/09/29 07:39:21;;;;;;;1.57;1.17;;;11.40;98.20;;;;;;4997972;28;20512;-76
2022/09/29 07:41:50;;;;;;;1.60;1.17;;;11.50;98.20;;;;;;4977661;28;20485;-75
2022/09/29 07:44:18;;;;;;;1.53;1.10;;;11.60;98.20;;;;;;4989025;28;20476;-75
2022/09/29 07:46:45;;;;;;;1.60;1.10;;;11.60;98.20;;;;;;4975638;28;20883;-75
2022/09/29 07:49:12;;;;;;;1.57;1.07;;;11.80;98.20;;;;;;4988044;28;20512;-74
2022/09/29 07:51:40;;;;;;;1.57;1.00;;;11.80;98.20;;;;;;4977630;28;20571;-75
2022/09/29 07:54:07;;;;;;;1.57;1.10;;;11.80;98.20;;;;;;4987836;28;20503;-75
2022/09/29 07:56:35;;;;;;;1.53;1.07;;;11.90;98.20;;;;;;4976965;28;20492;-75
2022/09/29 07:59:04;;;;;;;1.53;1.10;;;12.00;98.20;;;;;;4987675;28;20759;-76
2022/09/29 08:01:31;;;;;;;1.53;1.10;;;12.00;98.20;;;;;;4977632;28;20492;-76
2022/09/29 08:04:00;;;;;;;1.50;1.00;;;12.10;98.20;;;;;;4987342;28;20469;-76
2022/09/29 08:06:28;;;;;;;1.63;1.23;;;12.20;98.20;;;;;;4981377;28;20636;-75
2022/09/29 08:08:56;;;;;;;1.60;1.10;;;12.40;98.20;;;;;;5001595;28;20495;-76
2022/09/29 08:11:23;;;;;;;1.57;1.10;;;12.50;98.20;;;;;;4977917;28;20568;-76
2022/09/29 08:13:52;;;;;;;2.43;1.73;;;12.60;98.20;;;;;;4988028;28;20805;-77
2022/09/29 08:16:21;;;;;;;1.60;1.20;;;12.50;98.20;;;;;;4970080;28;20902;-76
2022/09/29 08:18:49;;;;;;;1.50;1.03;;;12.40;98.20;;;;;;4981360;28;20846;-77
2022/09/29 08:21:16;;;;;;;1.53;1.10;;;12.40;98.20;;;;;;4977777;28;20485;-76
2022/09/29 08:23:44;;;;;;;1.53;0.93;;;12.60;98.20;;;;;;4981436;28;20469;-78
2022/09/29 08:26:12;;;;;;;1.53;1.00;;;12.60;98.20;;;;;;4976724;28;20508;-78
2022/09/29 08:28:41;;;;;;;1.53;1.10;;;12.70;98.20;;;;;;4979093;28;20494;-77
2022/09/29 08:31:10;;;;;;;1.50;1.00;;;12.80;98.20;;;;;;4977018;28;20547;-76
2022/09/29 08:33:39;;;;;;;1.50;1.00;;;13.00;98.20;;;;;;4988000;28;20966;-77
2022/09/29 08:36:13;;;;;;;1.50;1.00;;;13.10;98.20;;;;;;4975983;28;20910;-77
2022/09/29 08:38:45;;;;;;;1.53;1.00;;;13.30;98.20;;;;;;5001906;28;20460;-78
2022/09/29 08:41:32;;;;;;;1.50;0.90;;;13.50;98.20;;;;;;4978083;28;20508;-77
2022/09/29 08:44:04;;;;;;;1.50;1.00;;;13.60;98.20;;;;;;4987397;28;20571;-78
2022/09/29 08:46:35;;;;;;;1.57;1.10;;;13.70;98.20;;;;;;4976668;28;20556;-78
2022/09/29 08:49:11;;;;;;;1.50;1.00;;;13.80;98.20;;;;;;4987567;28;20543;-78
2022/09/29 08:51:43;;;;;;;1.57;1.00;;;14.00;98.20;;;;;;4971030;28;20500;-78
2022/09/29 08:54:21;;;;;;;1.60;1.10;;;14.10;98.20;;;;;;4987595;28;20468;-78
2022/09/29 08:56:48;;;;;;;1.53;1.00;;;14.10;98.20;;;;;;4976636;28;21002;-78
2022/09/29 08:59:16;;;;;;;12.10;5.33;;;14.30;98.20;;;;;;4987364;28;20585;-78
2022/09/29 09:01:55;;;;;;;1.50;1.00;;;14.40;98.20;;;;;;4977603;28;20497;-78
2022/09/29 09:04:55;;;;;;;1.53;1.00;;;14.40;98.20;;;;;;4987922;28;20954;-78
2022/09/29 09:07:35;;;;;;;1.53;0.90;;;14.50;98.20;;;;;;4980906;28;20479;-79
2022/09/29 09:10:13;;;;;;;1.50;0.90;;;14.50;98.20;;;;;;4988075;28;20489;-78
2022/09/29 09:13:07;;;;;;;1.53;1.00;;;14.70;98.20;;;;;;4980230;28;20492;-78
2022/09/29 09:15:53;;;;;;;1.50;1.00;;;14.80;98.20;;;;;;4991183;28;20468;-80
2022/09/29 09:18:49;;;;;;;1.50;0.90;;;15.00;98.20;;;;;;4961400;28;20499;-77
2022/09/29 09:21:19;;;;;;;1.57;1.10;;;15.10;98.20;;;;;;4981211;28;20520;-78
2022/09/29 09:23:56;;;;;;;1.50;1.00;;;15.30;98.20;;;;;;4991171;28;20946;-78
2022/09/29 09:26:33;;;;;;;1.50;1.00;;;15.50;98.20;;;;;;4980678;28;20472;-78
2022/09/29 09:29:04;;;;;;;1.60;1.00;;;15.60;98.20;;;;;;4990766;28;20488;-78
2022/09/29 09:31:38;;;;;;;1.50;1.00;;;15.70;98.20;;;;;;4980585;28;20485;-78
2022/09/29 09:34:14;;;;;;;1.53;1.00;;;15.70;98.20;;;;;;4991681;28;20465;-78
2022/09/29 09:36:45;;;;;;;1.60;1.20;;;15.80;98.20;;;;;;4986027;28;20499;-78
2022/09/29 09:39:20;;;;;;;1.53;1.00;;;15.90;98.20;;;;;;5002849;28;20627;-78
2022/09/29 09:41:51;;;;;;;1.60;1.10;;;16.00;98.20;;;;;;4981037;28;20491;-78
2022/09/29 09:44:23;;;;;;;1.53;0.90;;;16.10;98.20;;;;;;4991240;28;20472;-78
2022/09/29 09:46:53;;;;;;;1.57;1.00;;;16.20;98.20;;;;;;4979714;28;20477;-78
2022/09/29 09:49:26;;;;;;;1.50;1.00;;;16.30;98.20;;;;;;4990780;28;20500;-79
2022/09/29 09:51:59;;;;;;;1.53;1.00;;;16.40;98.20;;;;;;4979945;28;20480;-78
2022/09/29 09:54:35;;;;;;;1.53;0.93;;;16.60;98.20;;;;;;4990993;28;20470;-78
2022/09/29 09:57:30;;;;;;;1.60;1.00;;;16.70;98.20;;;;;;4979454;28;20603;-77
2022/09/29 10:00:07;;;;;;;1.53;1.00;;;16.80;98.20;;;;;;4991666;28;20516;-79
2022/09/29 10:02:34;;;;;;;1.57;1.00;;;17.00;98.20;;;;;;4980124;28;20488;-80
2022/09/29 10:05:01;;;;;;;1.53;0.90;;;17.10;96.90;;;;;;4994092;28;20749;-79
2022/09/29 10:07:30;;;;;;;1.53;0.90;;;17.20;97.70;;;;;;4979956;28;20588;-80
2022/09/29 10:10:05;;;;;;;1.50;0.90;;;17.20;97.30;;;;;;4996939;28;20548;-79
2022/09/29 10:12:33;;;;;;;22.93;2.63;;;17.20;96.10;;;;;;4978836;28;20504;-79
2022/09/29 10:15:04;;;;;;;1.53;1.00;;;17.30;96.10;;;;;;4991159;28;20488;-78
2022/09/29 10:17:39;;;;;;;1.50;0.90;;;17.40;96.50;;;;;;4977413;28;20580;-79
2022/09/29 10:20:09;;;;;;;1.50;0.90;;;17.50;97.60;;;;;;4991268;28;20492;-78
2022/09/29 10:22:37;;;;;;;1.50;0.90;;;17.60;95.70;;;;;;4978030;28;20579;-78
2022/09/29 10:25:17;;;;;;;2.07;1.60;;;17.60;95.10;;;;;;4990231;28;20477;-78
2022/09/29 10:27:48;;;;;;;1.50;0.90;;;17.80;95.10;;;;;;4979322;28;20484;-79
2022/09/29 10:30:27;;;;;;;1.53;1.00;;;17.80;92.90;;;;;;4990373;28;20527;-78
2022/09/29 10:32:58;;;;;;;1.50;0.90;;;18.00;93.60;;;;;;4978998;28;20529;-78
2022/09/29 10:35:38;;;;;;;1.50;0.90;;;18.20;93.40;;;;;;4990515;28;20978;-78
2022/09/29 10:38:09;;;;;;;1.50;0.90;;;18.20;92.00;;;;;;4988035;28;20534;-78
2022/09/29 10:40:54;;;;;;;1.50;1.00;;;18.40;92.50;;;;;;4990593;28;20572;-78
2022/09/29 10:43:26;;;;;;;1.57;1.00;;;18.50;90.80;;;;;;4960409;28;20484;-78
2022/09/29 10:45:57;;;;;;;1.53;1.00;;;18.70;90.10;;;;;;4979048;28;20829;-78
2022/09/29 10:48:26;;;;;;;1.60;1.10;;;18.80;91.30;;;;;;4989676;28;20851;-80
2022/09/29 10:50:58;;;;;;;1.50;0.90;;;19.00;89.20;;;;;;4980288;28;20504;-79
2022/09/29 10:53:34;;;;;;;1.50;0.90;;;19.10;90.00;;;;;;4988519;28;20472;-79
2022/09/29 10:56:16;;;;;;;1.50;0.90;;;19.20;89.50;;;;;;4979543;28;20457;-79
2022/09/29 10:58:53;;;;;;;1.50;0.90;;;19.40;88.30;;;;;;4984100;28;20480;-79
2022/09/29 11:01:21;;;;;;;1.50;0.90;;;19.50;90.60;;;;;;4975407;28;20828;-78
2022/09/29 11:03:52;;;;;;;1.50;0.90;;;19.60;87.70;;;;;;4982075;28;20551;-78
2022/09/29 11:06:28;;;;;;;1.50;0.90;;;19.60;87.30;;;;;;4981488;28;21012;-79
2022/09/29 11:08:58;;;;;;;1.50;0.90;;;19.60;87.70;;;;;;5004322;28;20487;-78
2022/09/29 11:11:28;;;;;;;1.50;0.90;;;19.60;85.60;;;;;;4979724;28;20962;-81
2022/09/29 11:13:55;;;;;;;1.50;0.90;;;19.50;84.60;;;;;;4989092;28;20551;-79
2022/09/29 11:16:33;;;;;;;1.60;1.00;;;19.20;84.40;;;;;;4976961;28;21587;-78
2022/09/29 11:19:05;;;;;;;1.50;0.90;;;19.20;87.90;;;;;;4989089;28;20958;-79
2022/09/29 11:22:03;;;;;;;1.50;0.90;;;19.20;86.00;;;;;;4979269;28;21092;-78
2022/09/29 11:25:02;;;;;;;1.50;0.90;;;19.20;87.70;;;;;;4989009;28;20462;-79
2022/09/29 11:27:43;;;;;;;1.50;0.90;;;19.20;86.40;;;;;;4926985;28;20493;-79
2022/09/29 11:30:16;;;;;;;1.50;0.90;;;19.00;85.10;;;;;;4989847;28;20576;-78
2022/09/29 11:33:11;;;;;;;1.70;1.30;;;19.00;85.20;;;;;;4978290;28;20481;-79
2022/09/29 11:35:48;;;;;;;1.50;0.90;;;18.70;86.50;;;;;;4985069;28;20564;-78
2022/09/29 11:38:42;;;;;;;1.50;0.90;;;18.40;85.80;;;;;;4967878;28;20494;-80
2022/09/29 11:41:34;;;;;;;1.50;0.90;;;18.00;88.20;;;;;;4972823;28;20490;-79
2022/09/29 11:44:15;;;;;;;1.50;0.90;;;17.90;89.20;;;;;;4985994;28;20469;-78
2022/09/29 11:46:56;;;;;;;1.50;0.90;;;17.80;86.30;;;;;;4977815;28;20547;-79
2022/09/29 11:49:46;;;;;;;1.50;0.90;;;17.80;87.40;;;;;;4982393;28;20493;-78
2022/09/29 11:52:38;;;;;;;1.50;0.90;;;17.80;88.60;;;;;;4977607;28;20799;-78
2022/09/29 11:55:28;;;;;;;1.50;0.90;;;18.10;89.30;;;;;;4989220;28;20515;-81
2022/09/29 11:58:05;;;;;;;1.50;0.90;;;18.30;86.10;;;;;;4977125;28;20492;-80
2022/09/29 12:00:57;;;;;;;1.50;0.90;;;18.40;86.80;;;;;;4989277;28;20539;-78
2022/09/29 12:03:35;;;;;;;1.50;0.90;;;18.50;83.20;;;;;;4961952;28;20511;-77
2022/09/29 12:06:30;;;;;;;1.50;0.90;;;18.30;85.70;;;;;;4979116;28;20488;-78
2022/09/29 12:09:09;;;;;;;1.50;0.90;;;18.10;84.40;;;;;;4991218;28;20756;-78
2022/09/29 12:11:46;;;;;;;1.50;0.90;;;17.80;84.20;;;;;;4972068;28;21005;-79
2022/09/29 12:14:23;;;;;;;1.50;0.93;;;17.70;86.50;;;;;;4979201;28;20792;-78
2022/09/29 12:16:57;;;;;;;1.50;1.00;;;17.60;87.20;;;;;;4983553;28;21063;-77
2022/09/29 12:19:28;;;;;;;1.50;1.00;;;17.30;87.10;;;;;;4996756;28;20525;-79
2022/09/29 12:21:59;;;;;;;1.50;1.00;;;17.10;88.00;;;;;;4981610;28;20511;-78
2022/09/29 12:24:34;;;;;;;1.50;0.90;;;17.10;88.90;;;;;;4990793;28;20891;-78
2022/09/29 12:27:05;;;;;;;1.50;0.90;;;17.00;89.40;;;;;;4981927;28;20552;-78
2022/09/29 12:29:37;;;;;;;1.50;0.90;;;16.70;88.60;;;;;;4993592;28;20495;-78
2022/09/29 12:32:12;;;;;;;1.50;0.93;;;16.60;90.00;;;;;;4984822;28;21063;-78
2022/09/29 12:34:44;;;;;;;1.50;0.90;;;16.50;89.40;;;;;;4992064;28;20561;-78
2022/09/29 12:37:19;;;;;;;1.50;1.00;;;16.50;90.30;;;;;;4978548;28;20926;-77
2022/09/29 12:39:58;;;;;;;1.50;1.00;;;16.50;89.00;;;;;;4999854;28;20480;-79
2022/09/29 12:43:07;;;;;;;1.50;1.00;;;16.40;87.00;;;;;;4975854;28;20818;-78
2022/09/29 12:45:47;;;;;;;1.50;1.00;;;16.30;89.10;;;;;;4922677;29;20507;-78
2022/09/29 12:48:45;;;;;;;1.50;0.90;;;16.60;90.40;;;;;;4906003;29;20590;-78
2022/09/29 12:51:17;;;;;;;1.50;1.00;;;16.90;89.90;;;;;;4962462;28;21487;-78
2022/09/29 12:54:00;;;;;;;1.50;1.00;;;17.20;88.00;;;;;;4991337;28;20471;-78
2022/09/29 12:56:33;;;;;;;1.50;1.00;;;17.30;85.80;;;;;;4980649;28;20492;-79
2022/09/29 12:59:05;;;;;;;1.50;1.00;;;17.20;87.20;;;;;;4981901;28;20556;-78
2022/09/29 13:01:35;;;;;;;1.50;0.90;;;17.20;87.10;;;;;;4990809;28;20499;-78
2022/09/29 13:04:49;;;;;;;1.50;0.90;;;17.20;88.90;;;;;;4993886;28;20843;-77
2022/09/29 13:07:52;;;;;;;1.50;0.90;;;17.20;88.40;;;;;;4933836;28;20482;-78
2022/09/29 13:10:48;;;;;;;1.50;0.90;;;17.10;89.30;;;;;;4990498;28;21015;-78
2022/09/29 13:13:54;;;;;;;1.50;0.90;;;17.00;89.10;;;;;;4959949;28;20481;-78
2022/09/29 13:16:42;;;;;;;1.50;1.00;;;16.90;89.30;;;;;;4979507;28;20564;-77
2022/09/29 13:19:41;;;;;;;1.50;0.90;;;16.80;91.40;;;;;;4987649;28;20479;-77
2022/09/29 13:22:38;;;;;;;1.50;0.90;;;16.80;90.80;;;;;;4979908;28;20772;-79
2022/09/29 13:25:19;;;;;;;1.50;1.00;;;16.80;90.40;;;;;;4991816;28;21016;-78